KSUS/SUS METAR and TAF weather

Enter ICAO airport designator
Station Type Date Time Source
KSUS METAR 2022/09/26 08:54 UTC NOAA

KSUS 260854Z AUTO 27004KT 10SM CLR 10/07 A2998 RMK AO2 SLP148 T01000067 50004


Station Type Date Time Source
KSUS Decoded METAR 2022/09/26 08:54 UTC NOAA

SPIRIT OF ST. LOUIS AIRPORT , MO, United States (KSUS) 38-39N 090-39W 141M
Sep 26, 2022 - 04:54 AM EDT / 2022.09.26 0854 UTC
Wind: from the W (270 degrees) at 5 MPH (4 KT):0
Visibility: 10 mile(s):0
Sky conditions: clear
Temperature: 50.0 F (10.0 C)
Dew Point: 44.1 F (6.7 C)
Relative Humidity: 79%
Pressure (altimeter): 29.98 in. Hg (1015 hPa)
Pressure tendency: 0.01 inches (0.4 hPa) higher than three hours ago
ob: KSUS 260854Z AUTO 27004KT 10SM CLR 10/07 A2998 RMK AO2 SLP148 T01000067 50004
cycle: 9

Station Type Date Time Source
KSUS TAF 2022/09/26 06:22 UTC NOAA

TAF KSUS 260520Z 2606/2706 29006KT P6SM SKC
FM261600 31013G23KT P6SM FEW250
FM270000 31007KT P6SM FEW250

Example: see airport list